KPDT

Eastern Oregon Regional at Pendleton Airport

Pendleton, Oregon, USA
METAR KPDT 131053Z AUTO 22015KT 10SM OVC075 07/M05 A3024 RMK AO2 SLP240 T00721050 $
Observed Flight Rules
Dec-13 @ 10:53 UTC (41 minutes ago) Visual Flight Rules
Wind Visibility Clouds
220° at 15 knots 10 miles
  • Overcast at 7,500' AGL
Temperatures Readings
Current 7°C / 45°F
Dewpoint -5°C / 23°F
Humidity 42%
Altimeter 30.24" Hg
Pressure 1024 hPa
Elevation 462
METAR KPDT 131053Z AUTO 22015KT 10SM OVC075 07/M05 A3024 RMK AO2 SLP240 T00721050 $
Observed Flight Rules
Dec-13 @ 10:53 UTC
(41 minutes ago)
VFR
Wind Visibility
220° at 15 knots 10 miles
Clouds
  • Overcast at 7,500' AGL
Temperature Dewpoint
7°C / 45°F -5°C / 23°F
Humidity Altimeter Pressure
42% 30.24" Hg 1024 hPa